DLH9ED EDDH-LSGG
Flight info
| Callsign | DLH9ED |
|---|---|
| Flight time | N/A |
| Altitude | 36000 |
| Route | HABFU1C/05 HABFU Y348 MAWEQ DCT NVO DCT LIMGO/N0453F370 N852 SUTAL DCT GTQ DCT POGOL DCT LASAT DCT MOROK Z24 AKITO |
| Aircraft | A320/M-SDE3FGHIRWY/LB1 |
Departure
| Time | 2026-05-06 13:57 |
|---|---|
| Airport | Hamburg Helmut Schmidt Airport (EDDH) |
Arrival
| Time | N/A |
|---|---|
| Airport | Geneva International Airport (LSGG) |
| Time | Latitude | Longitude | Altitude | Speed | Heading |
|---|---|---|---|---|---|
| 2026-05-06 12:59 | 53.63112 | 10.00369 | 43 ft | 0 kts | 87° |
| 2026-05-06 13:39 | 53.63111 | 10.00351 | 43 ft | 4 kts | 87° |
| 2026-05-06 13:39 | 53.63110 | 10.00306 | 41 ft | 4 kts | 87° |
| 2026-05-06 13:39 | 53.63109 | 10.00260 | 41 ft | 4 kts | 87° |
| 2026-05-06 13:39 | 53.63107 | 10.00224 | 42 ft | 4 kts | 93° |
| 2026-05-06 13:40 | 53.63115 | 10.00194 | 42 ft | 4 kts | 165° |
| 2026-05-06 13:40 | 53.63138 | 10.00189 | 44 ft | 2 kts | 175° |
| 2026-05-06 13:40 | 53.63139 | 10.00189 | 44 ft | 0 kts | 175° |
| 2026-05-06 13:45 | 53.63138 | 10.00189 | 44 ft | 2 kts | 175° |
| 2026-05-06 13:46 | 53.63083 | 10.00191 | 45 ft | 11 kts | 191° |
| 2026-05-06 13:46 | 53.63019 | 10.00130 | 45 ft | 10 kts | 213° |
| 2026-05-06 13:46 | 53.62966 | 10.00070 | 45 ft | 8 kts | 213° |
| 2026-05-06 13:46 | 53.62922 | 10.00030 | 46 ft | 6 kts | 190° |
| 2026-05-06 13:47 | 53.62888 | 10.00038 | 46 ft | 4 kts | 178° |
| 2026-05-06 13:47 | 53.62853 | 10.00011 | 45 ft | 8 kts | 209° |
| 2026-05-06 13:47 | 53.62820 | 9.99978 | 47 ft | 2 kts | 211° |
| 2026-05-06 13:47 | 53.62815 | 9.99973 | 47 ft | 0 kts | 211° |
| 2026-05-06 13:48 | 53.62810 | 9.99968 | 47 ft | 5 kts | 211° |
| 2026-05-06 13:48 | 53.62760 | 9.99920 | 48 ft | 8 kts | 208° |
| 2026-05-06 13:49 | 53.62705 | 9.99870 | 46 ft | 14 kts | 208° |
| 2026-05-06 13:49 | 53.62642 | 9.99773 | 47 ft | 12 kts | 248° |
| 2026-05-06 13:49 | 53.62618 | 9.99576 | 46 ft | 24 kts | 259° |
| 2026-05-06 13:49 | 53.62584 | 9.99280 | 45 ft | 26 kts | 259° |
| 2026-05-06 13:50 | 53.62552 | 9.98997 | 44 ft | 24 kts | 259° |
| 2026-05-06 13:50 | 53.62522 | 9.98737 | 43 ft | 21 kts | 258° |
| 2026-05-06 13:50 | 53.62496 | 9.98504 | 42 ft | 19 kts | 259° |
| 2026-05-06 13:50 | 53.62472 | 9.98296 | 42 ft | 17 kts | 259° |
| 2026-05-06 13:51 | 53.62436 | 9.98122 | 41 ft | 15 kts | 241° |
| 2026-05-06 13:51 | 53.62381 | 9.97990 | 41 ft | 13 kts | 229° |
| 2026-05-06 13:51 | 53.62321 | 9.97872 | 41 ft | 17 kts | 230° |
| 2026-05-06 13:51 | 53.62235 | 9.97697 | 40 ft | 13 kts | 230° |
| 2026-05-06 13:52 | 53.62187 | 9.97595 | 40 ft | 9 kts | 238° |
| 2026-05-06 13:52 | 53.62177 | 9.97503 | 40 ft | 7 kts | 275° |
| 2026-05-06 13:52 | 53.62192 | 9.97440 | 39 ft | 5 kts | 301° |
| 2026-05-06 13:52 | 53.62208 | 9.97411 | 41 ft | 0 kts | 319° |
| 2026-05-06 13:56 | 53.62218 | 9.97397 | 41 ft | 7 kts | 321° |
| 2026-05-06 13:56 | 53.62268 | 9.97347 | 42 ft | 5 kts | 332° |
| 2026-05-06 13:56 | 53.62291 | 9.97337 | 43 ft | 5 kts | 19° |
| 2026-05-06 13:56 | 53.62347 | 9.97427 | 42 ft | 24 kts | 51° |
| 2026-05-06 13:57 | 53.62563 | 9.97868 | 42 ft | 80 kts | 50° |
| 2026-05-06 13:57 | 53.63041 | 9.98829 | 43 ft | 132 kts | 50° |
| 2026-05-06 13:57 | 53.63695 | 10.00149 | 331 ft | 154 kts | 49° |
| 2026-05-06 13:57 | 53.64380 | 10.01547 | 1087 ft | 154 kts | 49° |
| 2026-05-06 13:58 | 53.65079 | 10.02972 | 1608 ft | 165 kts | 50° |
| 2026-05-06 13:58 | 53.65860 | 10.04568 | 1929 ft | 188 kts | 51° |
| 2026-05-06 13:58 | 53.66712 | 10.06315 | 2435 ft | 196 kts | 50° |
| 2026-05-06 13:58 | 53.67584 | 10.08096 | 3252 ft | 196 kts | 52° |
| 2026-05-06 13:59 | 53.68496 | 10.09794 | 4013 ft | 202 kts | 39° |
| 2026-05-06 13:59 | 53.69829 | 10.10671 | 4726 ft | 217 kts | 7° |
| 2026-05-06 13:59 | 53.71383 | 10.10062 | 4961 ft | 250 kts | 329° |
| 2026-05-06 13:59 | 53.72620 | 10.07852 | 5005 ft | 274 kts | 306° |
| 2026-05-06 14:00 | 53.73578 | 10.05036 | 4996 ft | 278 kts | 298° |
| 2026-05-06 14:00 | 53.74408 | 10.02033 | 5001 ft | 280 kts | 292° |
| 2026-05-06 14:00 | 53.74784 | 9.98802 | 5003 ft | 282 kts | 272° |
| 2026-05-06 14:00 | 53.74614 | 9.95506 | 5007 ft | 283 kts | 257° |
| 2026-05-06 14:01 | 53.73975 | 9.92362 | 5007 ft | 284 kts | 246° |
| 2026-05-06 14:01 | 53.73211 | 9.89343 | 5003 ft | 283 kts | 246° |
| 2026-05-06 14:01 | 53.72448 | 9.86286 | 5002 ft | 283 kts | 246° |
| 2026-05-06 14:01 | 53.71679 | 9.83205 | 5251 ft | 288 kts | 246° |
| 2026-05-06 14:02 | 53.70902 | 9.80107 | 6237 ft | 286 kts | 246° |
| 2026-05-06 14:02 | 53.70119 | 9.76998 | 7065 ft | 290 kts | 246° |
| 2026-05-06 14:02 | 53.69319 | 9.73851 | 7920 ft | 292 kts | 246° |
| 2026-05-06 14:02 | 53.68518 | 9.70714 | 8833 ft | 292 kts | 247° |
| 2026-05-06 14:03 | 53.67715 | 9.67567 | 9725 ft | 292 kts | 247° |
| 2026-05-06 14:03 | 53.66892 | 9.64354 | 10233 ft | 308 kts | 245° |
| 2026-05-06 14:03 | 53.65801 | 9.61099 | 10450 ft | 331 kts | 234° |
| 2026-05-06 14:03 | 53.64285 | 9.58060 | 10813 ft | 345 kts | 223° |
| 2026-05-06 14:04 | 53.62419 | 9.55489 | 11560 ft | 348 kts | 213° |
| 2026-05-06 14:04 | 53.60310 | 9.53434 | 12392 ft | 356 kts | 207° |
| 2026-05-06 14:04 | 53.58135 | 9.51432 | 13196 ft | 355 kts | 207° |
| 2026-05-06 14:04 | 53.55969 | 9.49435 | 13956 ft | 355 kts | 207° |
| 2026-05-06 14:05 | 53.53790 | 9.47433 | 14622 ft | 357 kts | 207° |
| 2026-05-06 14:05 | 53.51608 | 9.45434 | 15465 ft | 356 kts | 207° |
| 2026-05-06 14:05 | 53.49415 | 9.43435 | 16180 ft | 361 kts | 207° |
| 2026-05-06 14:05 | 53.47188 | 9.41414 | 16829 ft | 365 kts | 207° |
| 2026-05-06 14:06 | 53.44947 | 9.39382 | 17488 ft | 368 kts | 208° |
| 2026-05-06 14:06 | 53.42694 | 9.37338 | 18099 ft | 370 kts | 208° |
| 2026-05-06 14:06 | 53.40416 | 9.35270 | 18624 ft | 373 kts | 208° |
| 2026-05-06 14:06 | 53.38124 | 9.33190 | 19092 ft | 376 kts | 208° |
| 2026-05-06 14:07 | 53.35820 | 9.31104 | 19579 ft | 378 kts | 208° |
| 2026-05-06 14:07 | 53.33479 | 9.29058 | 20054 ft | 381 kts | 204° |
| 2026-05-06 14:07 | 53.30998 | 9.27607 | 20485 ft | 384 kts | 194° |
| 2026-05-06 14:07 | 53.28417 | 9.26414 | 20972 ft | 386 kts | 204° |
| 2026-05-06 14:08 | 53.26131 | 9.24055 | 21439 ft | 389 kts | 215° |
| 2026-05-06 14:08 | 53.23918 | 9.21393 | 21856 ft | 393 kts | 215° |
| 2026-05-06 14:08 | 53.21684 | 9.18719 | 22282 ft | 397 kts | 214° |
| 2026-05-06 14:08 | 53.19418 | 9.16057 | 22762 ft | 399 kts | 214° |
| 2026-05-06 14:09 | 53.17122 | 9.13411 | 23246 ft | 402 kts | 214° |
| 2026-05-06 14:09 | 53.14807 | 9.10783 | 23645 ft | 405 kts | 213° |
| 2026-05-06 14:09 | 53.12457 | 9.08139 | 24025 ft | 408 kts | 213° |
| 2026-05-06 14:09 | 53.10100 | 9.05495 | 24435 ft | 409 kts | 213° |
| 2026-05-06 14:10 | 53.07737 | 9.02842 | 24789 ft | 411 kts | 213° |
| 2026-05-06 14:10 | 53.05356 | 9.00168 | 25123 ft | 414 kts | 213° |
| 2026-05-06 14:10 | 53.02968 | 8.97485 | 25479 ft | 416 kts | 213° |
| 2026-05-06 14:10 | 53.00565 | 8.94788 | 25832 ft | 418 kts | 213° |
| 2026-05-06 14:11 | 52.98155 | 8.92078 | 26163 ft | 420 kts | 213° |
| 2026-05-06 14:11 | 52.95729 | 8.89349 | 26498 ft | 422 kts | 213° |
| 2026-05-06 14:11 | 52.93289 | 8.86614 | 26860 ft | 424 kts | 213° |
| 2026-05-06 14:11 | 52.90838 | 8.83874 | 27154 ft | 427 kts | 213° |
| 2026-05-06 14:12 | 52.88357 | 8.81103 | 27427 ft | 431 kts | 213° |
| 2026-05-06 14:12 | 52.85868 | 8.78322 | 27756 ft | 432 kts | 212° |
| 2026-05-06 14:12 | 52.83399 | 8.75566 | 28041 ft | 435 kts | 213° |
| 2026-05-06 14:12 | 52.80883 | 8.72765 | 28348 ft | 437 kts | 212° |
| 2026-05-06 14:13 | 52.78356 | 8.69963 | 28650 ft | 439 kts | 212° |
| 2026-05-06 14:13 | 52.75814 | 8.67155 | 28959 ft | 440 kts | 212° |
| 2026-05-06 14:13 | 52.73266 | 8.64340 | 29197 ft | 443 kts | 212° |
| 2026-05-06 14:13 | 52.70700 | 8.61506 | 29484 ft | 444 kts | 212° |
| 2026-05-06 14:14 | 52.68123 | 8.58665 | 29776 ft | 447 kts | 212° |
| 2026-05-06 14:14 | 52.65528 | 8.55800 | 29863 ft | 451 kts | 213° |
| 2026-05-06 14:14 | 52.60320 | 8.50061 | 29856 ft | 449 kts | 213° |
| 2026-05-06 14:15 | 52.54797 | 8.45362 | 29849 ft | 447 kts | 204° |
| 2026-05-06 14:15 | 52.49142 | 8.41104 | 29865 ft | 447 kts | 204° |
| 2026-05-06 14:16 | 52.43460 | 8.36876 | 29864 ft | 452 kts | 204° |
| 2026-05-06 14:16 | 52.37934 | 8.31958 | 29860 ft | 454 kts | 214° |
| 2026-05-06 14:17 | 52.35555 | 8.28591 | 29859 ft | 454 kts | 229° |
| 2026-05-06 14:17 | 52.33461 | 8.24710 | 29853 ft | 454 kts | 223° |
| 2026-05-06 14:17 | 52.28349 | 8.18622 | 30189 ft | 456 kts | 211° |
| 2026-05-06 14:18 | 52.25633 | 8.15969 | 30551 ft | 454 kts | 210° |
| 2026-05-06 14:18 | 52.22926 | 8.13357 | 31014 ft | 450 kts | 211° |
| 2026-05-06 14:18 | 52.20271 | 8.10696 | 31566 ft | 444 kts | 212° |
| 2026-05-06 14:18 | 52.17685 | 8.07969 | 31992 ft | 441 kts | 213° |
| 2026-05-06 14:19 | 52.15178 | 8.05217 | 32347 ft | 440 kts | 214° |
| 2026-05-06 14:19 | 52.12666 | 8.02396 | 32710 ft | 438 kts | 215° |
| 2026-05-06 14:19 | 52.10167 | 7.99576 | 33067 ft | 436 kts | 215° |
| 2026-05-06 14:19 | 52.07671 | 7.96776 | 33441 ft | 435 kts | 214° |
| 2026-05-06 14:20 | 52.05181 | 7.94013 | 33820 ft | 433 kts | 214° |
| 2026-05-06 14:20 | 52.02692 | 7.91276 | 34123 ft | 431 kts | 214° |
| 2026-05-06 14:20 | 52.00211 | 7.88570 | 34418 ft | 430 kts | 214° |
| 2026-05-06 14:20 | 51.97733 | 7.85877 | 34705 ft | 428 kts | 214° |
| 2026-05-06 14:21 | 51.95259 | 7.83189 | 34988 ft | 427 kts | 214° |
| 2026-05-06 14:21 | 51.92785 | 7.80500 | 35192 ft | 428 kts | 214° |
| 2026-05-06 14:21 | 51.90309 | 7.77807 | 35398 ft | 428 kts | 214° |
| 2026-05-06 14:21 | 51.87834 | 7.75117 | 35621 ft | 428 kts | 214° |
| 2026-05-06 14:22 | 51.85362 | 7.72434 | 35803 ft | 428 kts | 214° |
| 2026-05-06 14:22 | 51.82882 | 7.69748 | 35851 ft | 428 kts | 214° |
| 2026-05-06 14:22 | 51.77937 | 7.64403 | 35847 ft | 427 kts | 214° |
| 2026-05-06 14:23 | 51.73000 | 7.59062 | 35841 ft | 427 kts | 214° |
| 2026-05-06 14:23 | 51.68056 | 7.53726 | 35843 ft | 427 kts | 214° |
| 2026-05-06 14:24 | 51.63103 | 7.48420 | 35848 ft | 427 kts | 214° |
| 2026-05-06 14:24 | 51.58155 | 7.43137 | 35852 ft | 427 kts | 214° |
| 2026-05-06 14:25 | 51.53209 | 7.37861 | 35840 ft | 427 kts | 214° |
| 2026-05-06 14:25 | 51.49099 | 7.33486 | 35842 ft | 426 kts | 213° |
| 2026-05-06 14:26 | 51.44151 | 7.28232 | 35829 ft | 426 kts | 213° |
| 2026-05-06 14:26 | 51.39202 | 7.23009 | 35843 ft | 426 kts | 213° |
| 2026-05-06 14:27 | 51.34244 | 7.17784 | 35843 ft | 426 kts | 213° |
| 2026-05-06 14:27 | 51.29293 | 7.12555 | 35839 ft | 427 kts | 213° |
| 2026-05-06 14:28 | 51.24326 | 7.07333 | 35841 ft | 427 kts | 213° |
| 2026-05-06 14:28 | 51.19359 | 7.02121 | 35857 ft | 428 kts | 213° |
| 2026-05-06 14:29 | 51.14389 | 6.96916 | 35850 ft | 428 kts | 213° |
| 2026-05-06 14:29 | 51.09411 | 6.91721 | 35852 ft | 427 kts | 213° |
| 2026-05-06 14:30 | 51.04462 | 6.86581 | 35844 ft | 427 kts | 213° |
| 2026-05-06 14:30 | 50.99450 | 6.81379 | 35850 ft | 427 kts | 213° |
| 2026-05-06 14:31 | 50.94514 | 6.76255 | 35858 ft | 427 kts | 213° |
| 2026-05-06 14:31 | 50.89529 | 6.71104 | 35863 ft | 427 kts | 213° |
| 2026-05-06 14:32 | 50.84524 | 6.65991 | 35868 ft | 428 kts | 210° |
| 2026-05-06 14:32 | 50.78985 | 6.62641 | 35862 ft | 429 kts | 192° |
| 2026-05-06 14:33 | 50.73106 | 6.60863 | 35858 ft | 429 kts | 192° |
| 2026-05-06 14:33 | 50.67239 | 6.59069 | 35860 ft | 430 kts | 192° |
| 2026-05-06 14:34 | 50.61378 | 6.57267 | 35842 ft | 429 kts | 192° |
| 2026-05-06 14:34 | 50.55511 | 6.55485 | 35841 ft | 429 kts | 192° |
| 2026-05-06 14:35 | 50.49636 | 6.53712 | 35833 ft | 429 kts | 192° |
| 2026-05-06 14:35 | 50.43771 | 6.51927 | 35832 ft | 429 kts | 192° |
| 2026-05-06 14:36 | 50.37914 | 6.50158 | 35826 ft | 429 kts | 192° |
| 2026-05-06 14:36 | 50.32058 | 6.48404 | 35818 ft | 428 kts | 192° |
| 2026-05-06 14:37 | 50.26208 | 6.46648 | 35820 ft | 428 kts | 192° |
| 2026-05-06 14:37 | 50.20293 | 6.46189 | 35811 ft | 430 kts | 174° |
| 2026-05-06 14:38 | 50.14358 | 6.47443 | 35804 ft | 431 kts | 174° |
| 2026-05-06 14:38 | 50.08418 | 6.48728 | 35804 ft | 431 kts | 174° |
| 2026-05-06 14:39 | 50.02521 | 6.49993 | 35811 ft | 431 kts | 174° |
| 2026-05-06 14:39 | 49.96542 | 6.51270 | 35807 ft | 431 kts | 174° |
| 2026-05-06 14:40 | 49.90638 | 6.52520 | 35813 ft | 431 kts | 174° |
| 2026-05-06 14:40 | 49.84692 | 6.53777 | 35807 ft | 431 kts | 174° |
| 2026-05-06 14:41 | 49.78755 | 6.55040 | 35814 ft | 431 kts | 174° |
| 2026-05-06 14:41 | 49.72816 | 6.56288 | 35807 ft | 430 kts | 174° |
| 2026-05-06 14:42 | 49.66880 | 6.57520 | 35814 ft | 430 kts | 174° |
| 2026-05-06 14:42 | 49.60956 | 6.58750 | 35811 ft | 430 kts | 174° |
| 2026-05-06 14:43 | 49.55021 | 6.59994 | 35813 ft | 430 kts | 174° |
| 2026-05-06 14:43 | 49.49096 | 6.61229 | 35823 ft | 430 kts | 174° |
| 2026-05-06 14:44 | 49.43167 | 6.62460 | 35813 ft | 430 kts | 174° |
| 2026-05-06 14:45 | 49.34277 | 6.64309 | 35818 ft | 430 kts | 174° |
| 2026-05-06 14:45 | 49.28350 | 6.65530 | 35819 ft | 430 kts | 174° |
| 2026-05-06 14:46 | 49.22421 | 6.66753 | 35806 ft | 430 kts | 174° |
| 2026-05-06 14:46 | 49.16489 | 6.67969 | 35811 ft | 430 kts | 174° |
| 2026-05-06 14:47 | 49.10561 | 6.69181 | 35816 ft | 430 kts | 174° |
| 2026-05-06 14:47 | 49.04622 | 6.70393 | 35827 ft | 430 kts | 174° |
| 2026-05-06 14:48 | 48.98719 | 6.71522 | 35822 ft | 429 kts | 178° |
| 2026-05-06 14:48 | 48.92760 | 6.71401 | 35829 ft | 428 kts | 183° |
| 2026-05-06 14:49 | 48.86801 | 6.71151 | 35832 ft | 429 kts | 183° |
| 2026-05-06 14:49 | 48.80828 | 6.70908 | 35830 ft | 429 kts | 183° |
| 2026-05-06 14:50 | 48.74866 | 6.70681 | 35828 ft | 429 kts | 182° |
| 2026-05-06 14:50 | 48.68902 | 6.70457 | 35827 ft | 429 kts | 183° |
| 2026-05-06 14:51 | 48.62943 | 6.70224 | 35827 ft | 429 kts | 183° |
| 2026-05-06 14:51 | 48.56976 | 6.69989 | 35827 ft | 429 kts | 183° |
| 2026-05-06 14:52 | 48.51012 | 6.69755 | 35833 ft | 429 kts | 183° |
| 2026-05-06 14:52 | 48.45047 | 6.69527 | 35832 ft | 429 kts | 183° |
| 2026-05-06 14:53 | 48.39085 | 6.69306 | 35833 ft | 428 kts | 183° |
| 2026-05-06 14:53 | 48.33129 | 6.69090 | 35841 ft | 428 kts | 183° |
| 2026-05-06 14:54 | 48.27166 | 6.68856 | 35858 ft | 428 kts | 183° |
| 2026-05-06 14:54 | 48.21202 | 6.68613 | 35847 ft | 427 kts | 183° |
| 2026-05-06 14:55 | 48.15268 | 6.68382 | 35852 ft | 427 kts | 183° |
| 2026-05-06 14:55 | 48.09329 | 6.68155 | 35857 ft | 427 kts | 183° |
| 2026-05-06 14:56 | 48.03431 | 6.67929 | 35860 ft | 427 kts | 183° |
| 2026-05-06 14:56 | 47.97499 | 6.67707 | 35865 ft | 427 kts | 183° |
| 2026-05-06 14:57 | 47.91551 | 6.67486 | 35870 ft | 427 kts | 183° |
| 2026-05-06 14:57 | 47.85614 | 6.67265 | 35872 ft | 427 kts | 183° |
| 2026-05-06 14:58 | 47.79677 | 6.67037 | 35870 ft | 427 kts | 183° |
| 2026-05-06 14:58 | 47.73741 | 6.66818 | 35877 ft | 427 kts | 183° |
| 2026-05-06 14:59 | 47.67809 | 6.66596 | 35881 ft | 427 kts | 183° |
| 2026-05-06 14:59 | 47.61872 | 6.66368 | 35885 ft | 427 kts | 183° |
| 2026-05-06 15:00 | 47.55937 | 6.66138 | 35880 ft | 427 kts | 183° |
| 2026-05-06 15:00 | 47.49999 | 6.65931 | 35889 ft | 427 kts | 183° |
| 2026-05-06 15:01 | 47.44066 | 6.65717 | 35888 ft | 426 kts | 183° |
| 2026-05-06 15:01 | 47.38136 | 6.65493 | 35887 ft | 426 kts | 183° |
| 2026-05-06 15:02 | 47.32253 | 6.65274 | 35898 ft | 425 kts | 184° |
| 2026-05-06 15:02 | 47.26350 | 6.65033 | 35910 ft | 423 kts | 187° |
| 2026-05-06 15:03 | 47.20728 | 6.62849 | 35913 ft | 418 kts | 207° |
| 2026-05-06 15:03 | 47.16036 | 6.57896 | 35912 ft | 417 kts | 221° |
| 2026-05-06 15:04 | 47.11688 | 6.52186 | 35574 ft | 421 kts | 221° |
| 2026-05-06 15:04 | 47.09488 | 6.49318 | 34735 ft | 425 kts | 221° |
| 2026-05-06 15:04 | 47.07271 | 6.46429 | 33905 ft | 429 kts | 221° |
| 2026-05-06 15:04 | 47.05032 | 6.43510 | 32976 ft | 432 kts | 221° |
| 2026-05-06 15:05 | 47.02782 | 6.40575 | 32088 ft | 434 kts | 221° |
| 2026-05-06 15:05 | 47.00518 | 6.37625 | 31148 ft | 437 kts | 221° |
| 2026-05-06 15:05 | 46.98286 | 6.34722 | 30626 ft | 419 kts | 221° |
| 2026-05-06 15:05 | 46.96120 | 6.31907 | 30070 ft | 414 kts | 221° |
| 2026-05-06 15:06 | 46.94003 | 6.29160 | 29427 ft | 410 kts | 221° |
| 2026-05-06 15:06 | 46.91852 | 6.26372 | 28829 ft | 405 kts | 221° |
| 2026-05-06 15:06 | 46.89756 | 6.23659 | 28245 ft | 401 kts | 221° |
| 2026-05-06 15:06 | 46.87704 | 6.20998 | 27672 ft | 398 kts | 221° |
| 2026-05-06 15:07 | 46.85644 | 6.18317 | 27114 ft | 395 kts | 221° |
| 2026-05-06 15:07 | 46.83603 | 6.15654 | 26549 ft | 392 kts | 221° |
| 2026-05-06 15:07 | 46.81580 | 6.13016 | 25992 ft | 389 kts | 221° |
| 2026-05-06 15:07 | 46.79569 | 6.10396 | 25451 ft | 386 kts | 221° |
| 2026-05-06 15:08 | 46.77574 | 6.07800 | 24911 ft | 383 kts | 221° |
| 2026-05-06 15:08 | 46.75589 | 6.05219 | 24380 ft | 381 kts | 221° |
| 2026-05-06 15:08 | 46.73616 | 6.02658 | 23874 ft | 378 kts | 221° |
| 2026-05-06 15:08 | 46.71652 | 6.00118 | 23353 ft | 376 kts | 221° |
| 2026-05-06 15:09 | 46.69699 | 5.97598 | 22840 ft | 373 kts | 221° |
| 2026-05-06 15:09 | 46.67768 | 5.95112 | 22372 ft | 368 kts | 221° |
| 2026-05-06 15:09 | 46.65857 | 5.92654 | 21907 ft | 365 kts | 221° |
| 2026-05-06 15:09 | 46.63958 | 5.90218 | 21415 ft | 362 kts | 221° |
| 2026-05-06 15:10 | 46.62096 | 5.87831 | 21186 ft | 348 kts | 221° |
| 2026-05-06 15:10 | 46.60225 | 5.85717 | 20728 ft | 337 kts | 210° |
| 2026-05-06 15:10 | 46.58811 | 5.84812 | 20547 ft | 334 kts | 197° |
| 2026-05-06 15:10 | 46.55780 | 5.84347 | 20208 ft | 332 kts | 174° |
| 2026-05-06 15:11 | 46.54255 | 5.84821 | 20033 ft | 333 kts | 162° |
| 2026-05-06 15:11 | 46.52187 | 5.86336 | 19660 ft | 336 kts | 147° |
| 2026-05-06 15:11 | 46.49622 | 5.88909 | 19024 ft | 339 kts | 146° |
| 2026-05-06 15:11 | 46.47706 | 5.90850 | 18717 ft | 335 kts | 147° |
| 2026-05-06 15:12 | 46.46414 | 5.92157 | 18413 ft | 333 kts | 147° |
| 2026-05-06 15:12 | 46.44516 | 5.94069 | 17711 ft | 331 kts | 147° |
| 2026-05-06 15:12 | 46.42655 | 5.95938 | 17030 ft | 328 kts | 147° |
| 2026-05-06 15:12 | 46.40796 | 5.97803 | 16421 ft | 323 kts | 147° |
| 2026-05-06 15:13 | 46.38983 | 5.99658 | 15850 ft | 317 kts | 142° |
| 2026-05-06 15:13 | 46.37561 | 6.02087 | 15326 ft | 321 kts | 120° |
| 2026-05-06 15:13 | 46.36900 | 6.05182 | 15010 ft | 324 kts | 97° |
| 2026-05-06 15:13 | 46.37103 | 6.08416 | 14692 ft | 325 kts | 73° |
| 2026-05-06 15:14 | 46.38143 | 6.11273 | 14091 ft | 323 kts | 49° |
| 2026-05-06 15:14 | 46.39704 | 6.13607 | 13370 ft | 323 kts | 45° |
| 2026-05-06 15:14 | 46.41290 | 6.15908 | 12629 ft | 323 kts | 44° |
| 2026-05-06 15:14 | 46.42883 | 6.18230 | 12164 ft | 324 kts | 44° |
| 2026-05-06 15:15 | 46.44462 | 6.20542 | 11608 ft | 321 kts | 44° |
| 2026-05-06 15:15 | 46.46014 | 6.22827 | 11016 ft | 316 kts | 45° |
| 2026-05-06 15:15 | 46.47546 | 6.25093 | 10477 ft | 312 kts | 45° |
| 2026-05-06 15:15 | 46.49052 | 6.27326 | 9981 ft | 308 kts | 45° |
| 2026-05-06 15:16 | 46.50550 | 6.29548 | 9531 ft | 304 kts | 44° |
| 2026-05-06 15:16 | 46.51882 | 6.31798 | 9349 ft | 285 kts | 61° |
| 2026-05-06 15:16 | 46.52414 | 6.34445 | 9191 ft | 270 kts | 91° |
| 2026-05-06 15:16 | 46.52045 | 6.37051 | 8978 ft | 262 kts | 121° |
| 2026-05-06 15:17 | 46.50948 | 6.39082 | 8604 ft | 255 kts | 141° |
| 2026-05-06 15:17 | 46.49539 | 6.40647 | 8192 ft | 255 kts | 158° |
| 2026-05-06 15:17 | 46.47890 | 6.41486 | 7803 ft | 249 kts | 175° |
| 2026-05-06 15:17 | 46.46169 | 6.41553 | 7234 ft | 250 kts | 193° |
| 2026-05-06 15:18 | 46.44562 | 6.40847 | 6822 ft | 238 kts | 211° |
| 2026-05-06 15:18 | 46.43233 | 6.39564 | 6531 ft | 223 kts | 225° |
| 2026-05-06 15:18 | 46.42164 | 6.38005 | 6238 ft | 217 kts | 227° |
| 2026-05-06 15:18 | 46.41108 | 6.36435 | 5951 ft | 215 kts | 227° |
| 2026-05-06 15:19 | 46.40081 | 6.34911 | 5668 ft | 208 kts | 227° |
| 2026-05-06 15:19 | 46.39087 | 6.33440 | 5379 ft | 201 kts | 226° |
| 2026-05-06 15:19 | 46.38124 | 6.32013 | 5119 ft | 196 kts | 226° |
| 2026-05-06 15:19 | 46.37195 | 6.30638 | 4882 ft | 185 kts | 226° |
| 2026-05-06 15:20 | 46.36318 | 6.29340 | 4618 ft | 175 kts | 225° |
| 2026-05-06 15:20 | 46.35485 | 6.28109 | 4372 ft | 167 kts | 226° |
| 2026-05-06 15:20 | 46.34691 | 6.26935 | 4158 ft | 160 kts | 226° |
| 2026-05-06 15:20 | 46.33919 | 6.25794 | 3938 ft | 157 kts | 226° |
| 2026-05-06 15:21 | 46.33156 | 6.24667 | 3728 ft | 156 kts | 226° |
| 2026-05-06 15:21 | 46.32407 | 6.23562 | 3528 ft | 151 kts | 225° |
| 2026-05-06 15:21 | 46.31691 | 6.22506 | 3345 ft | 147 kts | 226° |
| 2026-05-06 15:21 | 46.30982 | 6.21459 | 3173 ft | 140 kts | 226° |
| 2026-05-06 15:22 | 46.30310 | 6.20469 | 2951 ft | 137 kts | 225° |
| 2026-05-06 15:22 | 46.29643 | 6.19488 | 2750 ft | 135 kts | 225° |
| 2026-05-06 15:22 | 46.28976 | 6.18513 | 2549 ft | 137 kts | 225° |
| 2026-05-06 15:22 | 46.28332 | 6.17541 | 2351 ft | 135 kts | 227° |
| 2026-05-06 15:23 | 46.27693 | 6.16532 | 2209 ft | 137 kts | 225° |
| 2026-05-06 15:23 | 46.26999 | 6.15591 | 2009 ft | 137 kts | 219° |
| 2026-05-06 15:23 | 46.26321 | 6.14629 | 1826 ft | 137 kts | 225° |
| 2026-05-06 15:23 | 46.25681 | 6.13629 | 1640 ft | 134 kts | 224° |
| 2026-05-06 15:24 | 46.25011 | 6.12678 | 1432 ft | 134 kts | 224° |
| 2026-05-06 15:24 | 46.24381 | 6.11736 | 1372 ft | 121 kts | 224° |